Main page
METAR-TAF:

METAR-TAF

Airports :

Cherbourg – Maupertus Airport

Cherbourg, France

latitude: 49-39N, longitude: 001-28W, elevation: 138 m

Current weather observation

The report was made 44 minutes ago, at 23:30 UTC
Wind 4 kt from the East, varying between Northeast and East
Temperature 7°C
Humidity 93%
Pressure 1012 hPa
Visibility: 6000 m
Few clouds at a height of 1800 ft
Scattered clouds at a height of 2800 ft
Broken clouds at a height of 3600 ft
rain

METAR: LFRC 172330Z AUTO 08004KT 040V100 6000 RA FEW018 SCT028 BKN036 07/06 Q1012

Time: 01:14 (00:14 UTC)

Forecast

The report was made 10 hours and 14 minutes ago, at 14:00 UTC
Forecast valid from 17 at 15 UTC to 17 at 24 UTC
Wind 3 kt from variable directions
Visibility 10 km or more
Broken clouds at a height of 2000 ft
Probability 30% :
Temporary
from 17 at 15 UTC to 17 at 24 UTC
Visibility: 5000 m
rain showers

TAF: LFRC 171400Z 1715/1724 VRB03KT 9999 BKN020 PROB30 TEMPO 1715/1724 5000 SHRA

Weather observations and forecasts of more than 4000 airports (METAR and TAF reports).

The available stations are represented by yellow and red dots on the map.

Hover mouse over dot to see the name of the station.

Then click to see weather observations and forecasts.

To change the map : click on the green buttons with a black cross to zoom in, on the green button with a dash to zoom out, or on the green arrows for adjacent maps.


METAR-TAF: